Time;durP1;ratioP1;P1;durP2;ratioP2;P2;SDS_P1;SDS_P2;PMS_P1;PMS_P2;Temp;Humidity;BMP_temperature;BMP_pressure;BME280_temperature;BME280_humidity;BME280_pressure;Samples;Min_cycle;Max_cycle;Signal;HPM_P1;HPM_P2
2022/09/08 00:02:11;;;;;;;55.03;49.58;;;18.20;99.90;;;;;;5071685;28;20370;-66
2022/09/08 00:04:37;;;;;;;55.85;50.47;;;18.00;99.90;;;;;;5071676;28;20036;-67
2022/09/08 00:07:06;;;;;;;55.95;50.15;;;18.00;99.90;;;;;;5071062;28;20606;-64
2022/09/08 00:09:32;;;;;;;55.42;49.85;;;18.00;99.90;;;;;;5071572;28;20439;-69
2022/09/08 00:11:58;;;;;;;54.13;48.92;;;18.10;99.90;;;;;;5070016;28;20044;-67
2022/09/08 00:14:24;;;;;;;52.33;47.22;;;18.00;99.90;;;;;;5070972;28;20735;-67
2022/09/08 00:16:50;;;;;;;54.40;49.00;;;18.00;99.90;;;;;;5070592;28;20044;-67
2022/09/08 00:19:16;;;;;;;55.22;49.75;;;17.80;99.90;;;;;;5071061;28;20090;-69
2022/09/08 00:21:42;;;;;;;53.13;47.92;;;17.80;99.90;;;;;;5071152;28;20309;-67
2022/09/08 00:24:08;;;;;;;53.47;48.47;;;17.80;99.90;;;;;;5071446;28;20491;-68
2022/09/08 00:26:33;;;;;;;55.90;50.40;;;17.80;99.90;;;;;;5072245;28;20440;-69
2022/09/08 00:28:59;;;;;;;53.92;48.72;;;17.80;99.90;;;;;;5072248;28;20052;-67
2022/09/08 00:31:25;;;;;;;54.97;49.50;;;17.80;99.90;;;;;;5071243;28;20686;-67
2022/09/08 00:33:50;;;;;;;49.38;44.55;;;17.60;99.90;;;;;;5071295;28;20073;-69
2022/09/08 00:36:17;;;;;;;49.03;44.45;;;17.60;99.90;;;;;;5071141;28;20048;-69
2022/09/08 00:38:50;;;;;;;54.03;48.78;;;17.60;99.90;;;;;;5071068;28;20128;-65
2022/09/08 00:41:17;;;;;;;54.08;48.58;;;17.70;99.90;;;;;;5078221;28;20059;-68
2022/09/08 00:43:45;;;;;;;56.97;51.33;;;17.70;99.90;;;;;;5090780;28;20497;-68
2022/09/08 00:46:17;;;;;;;57.75;52.05;;;17.60;99.90;;;;;;5090378;28;20047;-69
2022/09/08 00:48:48;;;;;;;58.53;52.63;;;17.50;99.90;;;;;;5079983;28;20084;-66
2022/09/08 00:51:16;;;;;;;58.63;52.53;;;17.70;99.90;;;;;;5072591;28;20082;-68
2022/09/08 00:53:44;;;;;;;59.95;53.90;;;17.40;99.90;;;;;;5072725;28;20254;-67
2022/09/08 00:56:09;;;;;;;60.20;53.90;;;17.50;99.90;;;;;;5071162;28;20055;-66
2022/09/08 00:58:37;;;;;;;61.40;55.03;;;17.40;99.90;;;;;;5052467;28;20484;-69
2022/09/08 01:01:04;;;;;;;63.05;56.35;;;17.60;99.90;;;;;;5069115;28;20890;-68
2022/09/08 01:03:31;;;;;;;67.78;60.63;;;17.50;99.90;;;;;;5069534;28;20140;-67
2022/09/08 01:12:43;;;;;;;71.05;63.35;;;17.60;99.90;;;;;;5068344;28;20649;-68
2022/09/08 01:14:59;;;;;;;71.60;63.38;;;17.90;99.90;;;;;;5069662;28;20553;-67
2022/09/08 01:17:28;;;;;;;74.80;65.93;;;17.90;99.90;;;;;;5069692;28;20044;-66
2022/09/08 01:19:55;;;;;;;70.05;62.38;;;17.80;99.90;;;;;;5069510;28;20272;-66
2022/09/08 01:22:45;;;;;;;67.72;60.33;;;17.90;99.90;;;;;;5070560;28;20108;-65
2022/09/08 01:25:30;;;;;;;70.35;62.92;;;18.10;99.90;;;;;;5084252;28;20537;-66
2022/09/08 01:28:24;;;;;;;64.45;57.65;;;18.00;99.90;;;;;;5088535;28;20705;-67
2022/09/08 01:30:51;;;;;;;64.85;58.05;;;18.10;99.90;;;;;;5089782;28;20283;-65
2022/09/08 01:33:17;;;;;;;65.63;58.63;;;18.00;99.90;;;;;;5089206;28;20569;-67
2022/09/08 01:35:44;;;;;;;67.07;59.88;;;18.10;99.90;;;;;;5089510;28;20043;-70
2022/09/08 01:38:10;;;;;;;64.95;58.38;;;18.00;99.90;;;;;;5090907;28;20516;-67
2022/09/08 01:40:38;;;;;;;61.90;55.10;;;18.00;99.90;;;;;;5091912;28;20506;-67
2022/09/08 01:43:07;;;;;;;67.30;60.30;;;18.20;99.90;;;;;;5091302;28;20052;-66
2022/09/08 01:45:33;;;;;;;69.55;62.40;;;18.10;99.90;;;;;;5091652;28;20118;-68
2022/09/08 01:47:59;;;;;;;70.00;62.63;;;18.00;99.90;;;;;;5090285;28;20051;-66
2022/09/08 01:50:25;;;;;;;69.35;62.30;;;18.10;99.90;;;;;;5091597;28;20047;-67
2022/09/08 01:52:50;;;;;;;66.03;58.95;;;18.10;99.90;;;;;;5073745;28;20040;-67
2022/09/08 01:55:16;;;;;;;69.60;62.45;;;18.00;99.90;;;;;;5091559;28;20171;-67
2022/09/08 01:57:42;;;;;;;73.60;65.60;;;18.00;99.90;;;;;;5090579;28;20047;-68
2022/09/08 02:00:08;;;;;;;72.82;65.05;;;18.00;99.90;;;;;;5091030;28;20064;-68
2022/09/08 02:02:35;;;;;;;73.28;65.30;;;17.80;99.90;;;;;;5091116;28;20059;-67
2022/09/08 02:05:00;;;;;;;74.50;66.72;;;17.90;99.90;;;;;;5091431;28;20047;-68
2022/09/08 02:07:26;;;;;;;72.68;64.90;;;17.80;99.90;;;;;;5092294;28;20066;-67
2022/09/08 02:09:53;;;;;;;70.07;62.58;;;17.90;99.90;;;;;;5091425;28;20055;-67
2022/09/08 02:12:19;;;;;;;61.47;55.05;;;18.00;99.90;;;;;;5073676;28;20105;-68
2022/09/08 02:14:45;;;;;;;62.10;55.55;;;17.80;99.90;;;;;;5071845;28;20319;-67
2022/09/08 02:17:11;;;;;;;63.40;56.70;;;17.80;99.90;;;;;;5070823;28;20374;-68
2022/09/08 02:19:37;;;;;;;63.97;57.38;;;17.90;99.90;;;;;;5071900;28;20643;-69
2022/09/08 02:22:02;;;;;;;61.78;55.40;;;18.00;99.90;;;;;;5072520;28;20051;-67
2022/09/08 02:24:28;;;;;;;68.20;61.15;;;18.00;99.90;;;;;;5071798;28;20090;-69
2022/09/08 02:26:55;;;;;;;70.13;62.97;;;17.90;99.90;;;;;;5071799;28;20130;-67
2022/09/08 02:29:21;;;;;;;69.25;61.95;;;17.90;99.90;;;;;;5071983;28;20482;-69
2022/09/08 02:31:47;;;;;;;68.82;61.78;;;17.80;99.90;;;;;;5071921;28;20547;-66
2022/09/08 02:34:12;;;;;;;67.65;60.55;;;18.00;99.90;;;;;;5071881;28;20533;-66
2022/09/08 02:36:38;;;;;;;72.45;65.10;;;17.80;99.90;;;;;;5072773;28;20071;-66
2022/09/08 02:39:04;;;;;;;72.55;64.95;;;17.80;99.90;;;;;;5073140;28;20044;-67
2022/09/08 02:41:30;;;;;;;59.47;53.17;;;17.90;99.90;;;;;;5074875;28;20407;-68
2022/09/08 02:43:56;;;;;;;67.35;60.17;;;17.90;99.90;;;;;;5056501;28;20044;-67
2022/09/08 02:46:23;;;;;;;68.05;60.80;;;17.80;99.90;;;;;;5075706;28;20570;-67
2022/09/08 02:48:48;;;;;;;72.22;64.88;;;17.80;99.90;;;;;;5076029;28;20051;-66
2022/09/08 02:51:18;;;;;;;75.88;68.10;;;17.80;99.90;;;;;;5074287;28;20040;-67
2022/09/08 02:53:44;;;;;;;69.85;62.70;;;17.70;99.90;;;;;;5075499;28;20573;-66
2022/09/08 02:56:10;;;;;;;76.32;68.22;;;17.60;99.90;;;;;;5075217;28;20047;-66
2022/09/08 02:58:36;;;;;;;70.05;62.67;;;17.60;99.90;;;;;;5075093;28;20052;-67
2022/09/08 03:01:04;;;;;;;65.28;57.97;;;17.60;99.90;;;;;;5074837;28;20303;-66
2022/09/08 03:03:30;;;;;;;68.47;61.13;;;17.70;99.90;;;;;;5075369;28;20314;-69
2022/09/08 03:05:56;;;;;;;67.75;60.65;;;17.60;99.90;;;;;;5075675;28;20459;-66
2022/09/08 03:08:23;;;;;;;76.10;68.28;;;17.50;99.90;;;;;;5089438;28;20055;-66
2022/09/08 03:10:50;;;;;;;77.72;69.63;;;17.70;99.90;;;;;;5094131;28;20669;-67
2022/09/08 03:13:16;;;;;;;76.72;68.53;;;17.70;99.90;;;;;;5089495;27;20043;-67
2022/09/08 03:15:42;;;;;;;78.63;70.25;;;17.60;99.90;;;;;;5074692;28;20478;-68
2022/09/08 03:18:08;;;;;;;80.18;71.75;;;17.60;99.90;;;;;;5075038;28;20066;-68
2022/09/08 03:20:36;;;;;;;76.28;68.15;;;17.70;99.90;;;;;;5075438;28;20040;-66
2022/09/08 03:23:02;;;;;;;81.78;73.25;;;17.60;99.90;;;;;;5074863;28;20081;-67
2022/09/08 03:25:28;;;;;;;81.40;72.78;;;17.80;99.90;;;;;;5073319;28;20116;-66
2022/09/08 03:27:55;;;;;;;81.82;73.13;;;17.80;99.90;;;;;;5074544;28;20194;-68
2022/09/08 03:30:20;;;;;;;77.65;69.43;;;17.80;99.90;;;;;;5073044;28;20422;-67
2022/09/08 03:32:47;;;;;;;76.88;68.55;;;17.60;99.90;;;;;;5075121;28;20040;-68
2022/09/08 03:35:16;;;;;;;75.40;67.50;;;17.80;99.90;;;;;;5088237;28;20074;-66
2022/09/08 03:37:42;;;;;;;72.40;64.88;;;17.60;99.90;;;;;;5088773;28;20064;-67
2022/09/08 03:40:14;;;;;;;76.18;68.43;;;17.70;99.90;;;;;;5093512;28;20053;-67
2022/09/08 03:42:41;;;;;;;67.80;60.70;;;17.80;99.90;;;;;;5093692;28;20113;-66
2022/09/08 03:45:10;;;;;;;68.75;61.65;;;17.70;99.90;;;;;;5086552;28;20059;-66
2022/09/08 03:47:37;;;;;;;68.20;61.33;;;17.90;99.90;;;;;;5072824;28;20043;-66
2022/09/08 03:50:04;;;;;;;64.72;58.22;;;17.90;99.90;;;;;;5072591;28;20973;-65
2022/09/08 03:52:30;;;;;;;72.70;65.20;;;17.90;99.90;;;;;;5072275;28;20079;-66
2022/09/08 03:54:57;;;;;;;73.07;65.65;;;18.00;99.90;;;;;;5070889;28;20362;-66
2022/09/08 03:57:25;;;;;;;69.57;62.50;;;18.00;99.90;;;;;;5070989;28;20048;-67
2022/09/08 03:59:53;;;;;;;70.70;63.58;;;18.10;99.90;;;;;;5072789;28;20134;-66
2022/09/08 04:02:20;;;;;;;72.63;65.38;;;18.10;99.90;;;;;;5072045;28;20044;-67
2022/09/08 04:04:54;;;;;;;72.45;65.13;;;18.00;99.90;;;;;;5073463;28;20052;-67
2022/09/08 04:07:22;;;;;;;64.53;57.72;;;18.20;99.90;;;;;;5073868;28;20044;-67
2022/09/08 04:09:48;;;;;;;70.90;63.75;;;18.10;99.90;;;;;;5073470;28;20060;-69
2022/09/08 04:12:15;;;;;;;70.55;63.65;;;18.20;99.90;;;;;;5072219;28;20318;-66
2022/09/08 04:14:41;;;;;;;70.82;63.55;;;18.20;99.90;;;;;;5070892;28;20526;-68
2022/09/08 04:17:07;;;;;;;69.30;62.50;;;18.20;99.90;;;;;;5085364;28;20965;-67
2022/09/08 04:19:33;;;;;;;69.82;62.83;;;18.30;99.90;;;;;;5089891;28;20502;-67
2022/09/08 04:21:59;;;;;;;70.47;63.55;;;18.30;99.90;;;;;;5088924;28;20036;-69
2022/09/08 04:24:25;;;;;;;74.70;67.30;;;18.10;99.90;;;;;;5088358;28;20087;-66
2022/09/08 04:26:51;;;;;;;77.05;69.43;;;18.30;99.90;;;;;;5090559;27;20344;-66
2022/09/08 04:29:17;;;;;;;70.50;63.47;;;18.30;99.90;;;;;;5090379;28;20047;-67
2022/09/08 04:31:44;;;;;;;71.65;64.50;;;18.30;99.90;;;;;;5090336;28;20352;-68
2022/09/08 04:34:13;;;;;;;69.70;62.90;;;18.20;99.90;;;;;;5088528;27;20218;-68
2022/09/08 04:36:40;;;;;;;68.78;61.97;;;18.30;99.90;;;;;;5089995;28;20931;-67
2022/09/08 04:39:05;;;;;;;69.35;62.50;;;18.20;99.90;;;;;;5090008;28;20240;-68
2022/09/08 04:41:31;;;;;;;71.93;64.40;;;18.30;99.90;;;;;;5083942;28;20097;-66
2022/09/08 04:44:01;;;;;;;70.70;63.35;;;18.40;99.90;;;;;;5070596;28;20040;-68
2022/09/08 04:46:28;;;;;;;72.22;65.00;;;18.20;99.90;;;;;;5070516;28;20050;-66
2022/09/08 04:48:54;;;;;;;73.78;66.38;;;18.20;99.90;;;;;;5070208;28;20315;-69
2022/09/08 04:51:21;;;;;;;71.72;64.53;;;18.30;99.90;;;;;;5069945;28;20135;-67
2022/09/08 04:53:48;;;;;;;76.47;68.70;;;18.30;99.90;;;;;;5070692;28;20044;-66
2022/09/08 04:56:15;;;;;;;78.38;70.32;;;18.30;99.90;;;;;;5070630;28;20052;-67
2022/09/08 04:58:42;;;;;;;76.00;68.22;;;18.30;99.90;;;;;;5070144;28;20048;-68
2022/09/08 05:01:13;;;;;;;75.38;67.68;;;18.50;99.90;;;;;;5069907;28;20063;-67
2022/09/08 05:03:40;;;;;;;74.32;66.90;;;18.40;99.90;;;;;;5069731;28;20745;-67
2022/09/08 05:06:14;;;;;;;74.00;66.32;;;18.50;99.90;;;;;;5069841;28;20504;-66
2022/09/08 05:08:46;;;;;;;71.18;64.10;;;18.30;99.90;;;;;;5068972;28;20098;-67
2022/09/08 05:11:13;;;;;;;73.53;66.45;;;18.30;99.90;;;;;;5070195;28;20430;-67
2022/09/08 05:13:39;;;;;;;68.28;61.58;;;18.50;99.90;;;;;;5069588;28;20083;-67
2022/09/08 05:16:08;;;;;;;73.97;66.72;;;18.40;99.90;;;;;;5070614;28;20059;-66
2022/09/08 05:18:34;;;;;;;72.35;65.15;;;18.40;99.90;;;;;;5071012;28;20476;-66
2022/09/08 05:20:59;;;;;;;72.60;65.22;;;18.30;99.90;;;;;;5070603;28;20052;-66
2022/09/08 05:23:25;;;;;;;73.25;65.55;;;18.30;99.90;;;;;;5070549;28;20062;-69
2022/09/08 05:26:12;;;;;;;73.25;65.95;;;18.20;99.90;;;;;;5070558;28;20135;-68
2022/09/08 05:28:39;;;;;;;67.90;61.15;;;18.20;99.90;;;;;;5087721;28;20553;-67
2022/09/08 05:31:06;;;;;;;66.07;59.65;;;18.10;99.90;;;;;;5070096;28;20055;-67
2022/09/08 05:33:33;;;;;;;62.85;56.80;;;18.20;99.90;;;;;;5089674;28;20043;-69
2022/09/08 05:35:59;;;;;;;64.25;58.00;;;18.30;99.90;;;;;;5089539;28;20088;-67
2022/09/08 05:38:25;;;;;;;59.38;53.50;;;18.30;99.90;;;;;;5089736;28;20607;-66
2022/09/08 05:40:51;;;;;;;63.50;57.35;;;18.30;99.90;;;;;;5089583;28;20192;-67
2022/09/08 05:43:17;;;;;;;66.55;60.15;;;18.30;99.90;;;;;;5089678;28;20077;-66
2022/09/08 05:45:49;;;;;;;68.13;61.33;;;18.20;99.90;;;;;;5090166;28;20487;-66
2022/09/08 05:48:15;;;;;;;67.25;60.60;;;18.20;99.90;;;;;;5089299;28;20407;-69
2022/09/08 05:50:42;;;;;;;68.25;61.40;;;18.20;99.90;;;;;;5089277;28;20339;-67
2022/09/08 05:53:08;;;;;;;65.10;58.53;;;18.10;99.90;;;;;;5088138;28;20545;-69
2022/09/08 05:55:34;;;;;;;63.45;57.17;;;18.20;99.90;;;;;;5089481;28;20094;-67
2022/09/08 05:57:59;;;;;;;64.68;58.15;;;18.10;99.90;;;;;;5090280;28;20126;-69
2022/09/08 06:00:25;;;;;;;63.70;57.33;;;18.00;99.90;;;;;;5091259;28;20051;-68
2022/09/08 06:02:52;;;;;;;63.58;57.13;;;18.20;99.90;;;;;;5091425;28;20444;-66
2022/09/08 06:05:19;;;;;;;62.78;56.45;;;18.10;99.90;;;;;;5091021;28;20082;-68
2022/09/08 06:07:46;;;;;;;61.42;55.55;;;18.10;99.90;;;;;;5091230;28;20086;-65
2022/09/08 06:10:12;;;;;;;60.83;54.85;;;18.10;99.90;;;;;;5090482;28;20039;-66
2022/09/08 06:12:38;;;;;;;61.00;54.78;;;18.20;99.90;;;;;;5089450;28;20143;-68
2022/09/08 06:15:05;;;;;;;59.88;54.17;;;18.20;99.90;;;;;;5089603;28;20047;-69
2022/09/08 06:17:31;;;;;;;59.53;53.58;;;18.20;99.90;;;;;;5087692;28;20051;-66
2022/09/08 06:19:57;;;;;;;57.70;52.15;;;18.20;99.90;;;;;;5090507;28;20043;-67
2022/09/08 06:22:23;;;;;;;56.17;50.67;;;18.30;99.90;;;;;;5093235;28;20052;-66
2022/09/08 06:24:49;;;;;;;59.90;54.05;;;18.30;99.90;;;;;;5091411;28;20058;-67
2022/09/08 06:28:00;;;;;;;56.33;50.67;;;18.20;99.90;;;;;;5093333;28;20424;-67
2022/09/08 06:30:25;;;;;;;61.78;55.08;;;18.20;99.90;;;;;;5093259;28;20119;-67
2022/09/08 06:33:02;;;;;;;62.03;55.78;;;18.20;99.90;;;;;;5093673;27;20666;-67
2022/09/08 06:35:34;;;;;;;62.58;56.35;;;18.30;99.90;;;;;;5091598;28;20073;-66
2022/09/08 06:38:14;;;;;;;60.65;54.80;;;18.20;99.90;;;;;;5092458;28;20055;-67
2022/09/08 06:40:48;;;;;;;57.13;51.53;;;18.20;99.90;;;;;;5092943;28;20047;-66
2022/09/08 06:43:32;;;;;;;58.10;52.50;;;18.20;99.90;;;;;;5080787;28;20039;-67
2022/09/08 06:46:04;;;;;;;56.30;50.78;;;18.20;99.90;;;;;;5073138;28;20303;-68
2022/09/08 06:48:31;;;;;;;59.17;53.15;;;18.10;99.90;;;;;;5073429;28;20105;-67
2022/09/08 06:51:16;;;;;;;60.63;54.50;;;18.20;99.90;;;;;;5075127;28;20462;-70
2022/09/08 06:53:59;;;;;;;63.67;56.88;;;18.20;99.90;;;;;;5074691;28;20490;-66
2022/09/08 06:56:28;;;;;;;;;;;18.30;99.90;;;;;;5075694;28;20051;-67
2022/09/08 06:59:00;;;;;;;60.50;54.28;;;18.00;99.90;;;;;;5075233;28;19932;-70
2022/09/08 07:01:52;;;;;;;60.53;54.40;;;18.10;99.90;;;;;;5077289;28;20116;-66
2022/09/08 07:04:48;;;;;;;59.60;53.45;;;18.20;99.90;;;;;;5073955;28;20446;-66
2022/09/08 07:07:26;;;;;;;60.85;54.50;;;18.10;99.90;;;;;;5094115;28;20036;-65
2022/09/08 07:19:00;;;;;;;61.25;54.95;;;17.90;99.90;;;;;;5093135;28;20060;-67
2022/09/08 07:22:08;;;;;;;66.18;59.35;;;17.90;99.90;;;;;;5093420;28;20131;-65
2022/09/08 07:24:37;;;;;;;64.72;57.97;;;17.80;99.90;;;;;;5091152;28;20047;-65
2022/09/08 07:27:10;;;;;;;69.25;61.92;;;17.80;99.90;;;;;;5091670;28;20044;-65
2022/09/08 07:29:44;;;;;;;66.80;60.00;;;17.80;99.90;;;;;;5074526;28;20047;-66
2022/09/08 07:32:17;;;;;;;69.90;62.75;;;17.70;99.90;;;;;;5090526;28;20047;-66
2022/09/08 07:34:58;;;;;;;70.30;63.47;;;17.80;99.90;;;;;;5091112;28;20090;-67
2022/09/08 07:37:27;;;;;;;77.28;69.82;;;17.60;99.90;;;;;;5090691;28;20090;-67
2022/09/08 07:40:17;;;;;;;84.35;75.97;;;17.50;99.90;;;;;;5091032;28;20059;-68
2022/09/08 07:42:50;;;;;;;84.90;76.30;;;17.50;99.90;;;;;;5091824;28;20050;-67
2022/09/08 07:45:16;;;;;;;86.78;78.13;;;17.40;99.90;;;;;;5091427;28;20105;-67
2022/09/08 07:48:07;;;;;;;86.80;77.68;;;17.50;99.90;;;;;;5092718;28;20040;-66
2022/09/08 07:50:55;;;;;;;84.38;75.72;;;17.40;99.90;;;;;;5091909;28;20782;-69
2022/09/08 07:54:12;;;;;;;83.32;74.90;;;17.20;99.90;;;;;;5090716;28;20562;-68
2022/09/08 07:56:46;;;;;;;87.97;78.72;;;17.20;99.90;;;;;;5030123;28;20673;-68
2022/09/08 07:59:19;;;;;;;87.97;77.80;;;17.20;99.90;;;;;;5030261;28;20456;-69
2022/09/08 08:02:03;;;;;;;;;;;17.20;99.90;;;;;;5067765;28;20064;-67
2022/09/08 08:04:58;;;;;;;78.35;70.25;;;17.30;99.90;;;;;;5094196;28;19930;-66
2022/09/08 08:07:49;;;;;;;79.28;70.97;;;17.50;99.90;;;;;;5093915;28;20055;-66
2022/09/08 08:10:26;;;;;;;86.60;77.85;;;17.30;99.90;;;;;;5075299;28;20550;-67
2022/09/08 08:13:04;;;;;;;79.60;71.80;;;17.40;99.90;;;;;;5095504;28;20648;-67
2022/09/08 08:15:37;;;;;;;77.78;69.93;;;17.60;99.90;;;;;;5094174;28;20082;-66
2022/09/08 08:18:38;;;;;;;74.75;67.15;;;17.60;99.90;;;;;;5092182;28;20100;-68
2022/09/08 08:21:23;;;;;;;69.22;62.42;;;17.50;99.90;;;;;;5092839;28;20047;-70
2022/09/08 08:24:18;;;;;;;67.75;60.90;;;17.60;99.90;;;;;;5071436;28;20133;-68
2022/09/08 08:26:50;;;;;;;71.25;64.25;;;17.70;99.90;;;;;;5064903;28;20095;-66
2022/09/08 08:29:44;;;;;;;64.72;58.40;;;17.90;99.90;;;;;;5069901;28;20668;-67
2022/09/08 08:32:25;;;;;;;67.40;60.78;;;17.80;99.90;;;;;;5070002;28;20044;-67
2022/09/08 08:35:04;;;;;;;66.57;60.08;;;17.90;99.90;;;;;;5071261;28;20036;-68
2022/09/08 08:37:34;;;;;;;64.30;57.83;;;18.00;99.90;;;;;;5071058;28;20052;-67
2022/09/08 08:40:05;;;;;;;63.67;57.25;;;18.10;99.90;;;;;;5071212;28;20044;-68
2022/09/08 08:43:16;;;;;;;61.13;55.33;;;18.00;99.90;;;;;;5069784;28;20373;-69
2022/09/08 08:46:18;;;;;;;63.50;57.40;;;18.00;99.90;;;;;;5070828;28;20048;-67
2022/09/08 08:49:24;;;;;;;65.70;59.17;;;18.10;99.90;;;;;;5068857;28;20703;-67
2022/09/08 08:52:07;;;;;;;65.75;59.30;;;18.00;99.90;;;;;;5070009;28;20044;-68
2022/09/08 08:54:46;;;;;;;66.38;60.00;;;18.20;99.90;;;;;;5070400;28;20126;-67
2022/09/08 08:57:20;;;;;;;65.55;59.30;;;18.20;99.90;;;;;;5070045;28;20044;-67
2022/09/08 09:00:11;;;;;;;64.57;58.25;;;18.50;99.90;;;;;;5069335;28;20563;-67
2022/09/08 09:03:00;;;;;;;59.35;53.67;;;18.50;99.90;;;;;;5070849;28;20318;-66
2022/09/08 09:05:53;;;;;;;56.05;50.85;;;18.60;99.90;;;;;;5068423;28;20367;-67
2022/09/08 09:08:37;;;;;;;59.55;53.72;;;18.60;99.90;;;;;;5069274;28;20048;-67
2022/09/08 09:11:30;;;;;;;60.45;54.67;;;18.50;99.90;;;;;;5070255;28;20058;-69
2022/09/08 09:14:12;;;;;;;59.57;53.87;;;18.70;99.90;;;;;;5070266;28;20059;-67
2022/09/08 09:17:03;;;;;;;57.30;51.73;;;18.70;99.90;;;;;;5070269;28;20480;-67
2022/09/08 09:19:37;;;;;;;53.05;48.05;;;18.80;99.90;;;;;;5070877;28;20595;-69
2022/09/08 09:22:14;;;;;;;53.20;48.00;;;19.00;99.90;;;;;;5072485;28;20685;-69
2022/09/08 09:25:20;;;;;;;47.58;43.20;;;19.10;99.90;;;;;;5072090;28;20603;-67
2022/09/08 09:28:23;;;;;;;50.22;45.60;;;18.90;99.90;;;;;;5047987;28;20056;-66
2022/09/08 09:31:28;;;;;;;48.03;43.70;;;19.00;99.90;;;;;;5070833;28;20051;-67
2022/09/08 09:34:27;;;;;;;47.20;42.83;;;18.90;99.90;;;;;;5069850;28;20089;-66
2022/09/08 09:37:08;;;;;;;45.53;41.40;;;18.90;99.90;;;;;;5082979;28;20047;-67
2022/09/08 09:39:54;;;;;;;42.80;39.00;;;18.70;99.90;;;;;;5069944;28;20053;-66
2022/09/08 09:42:46;;;;;;;46.45;42.25;;;18.50;99.90;;;;;;5069636;28;20132;-68
2022/09/08 09:46:00;;;;;;;44.47;40.55;;;18.40;99.90;;;;;;5069746;28;20048;-67
2022/09/08 09:48:44;;;;;;;45.03;40.88;;;18.40;99.90;;;;;;5064648;28;20113;-67
2022/09/08 09:51:13;;;;;;;43.90;39.95;;;18.30;99.90;;;;;;5069346;28;20048;-67
2022/09/08 09:53:50;;;;;;;47.72;43.15;;;18.40;99.90;;;;;;5069131;28;20040;-67
2022/09/08 09:56:54;;;;;;;47.15;42.65;;;18.30;99.90;;;;;;5073470;28;20040;-67
2022/09/08 09:59:44;;;;;;;51.80;46.97;;;18.20;99.90;;;;;;5073121;28;20052;-67
2022/09/08 10:02:42;;;;;;;46.55;42.03;;;18.30;99.90;;;;;;5073607;28;20216;-67
2022/09/08 10:05:39;;;;;;;46.90;42.40;;;18.10;99.90;;;;;;5073159;28;20675;-67
2022/09/08 10:08:23;;;;;;;47.50;42.85;;;18.30;99.90;;;;;;5090812;28;20533;-70
2022/09/08 10:11:09;;;;;;;50.83;45.92;;;18.20;99.90;;;;;;5092571;28;20082;-68
2022/09/08 10:13:43;;;;;;;50.22;45.33;;;18.00;99.90;;;;;;5093111;28;20052;-67
2022/09/08 10:16:47;;;;;;;48.83;44.08;;;18.10;99.90;;;;;;5092353;28;20150;-67
2022/09/08 10:19:46;;;;;;;52.90;45.80;;;18.00;99.90;;;;;;5093115;28;20104;-66
2022/09/08 10:22:49;;;;;;;50.08;44.78;;;17.80;99.90;;;;;;5092601;28;20048;-67
2022/09/08 10:25:51;;;;;;;59.90;52.40;;;17.80;99.90;;;;;;5092151;28;20059;-66
2022/09/08 10:28:36;;;;;;;54.35;48.28;;;17.70;99.90;;;;;;5078673;28;20177;-66
2022/09/08 10:31:31;;;;;;;58.15;51.08;;;17.80;99.90;;;;;;5072366;28;20113;-66
2022/09/08 10:34:09;;;;;;;56.03;50.00;;;17.70;99.90;;;;;;5073164;28;20134;-67
2022/09/08 10:37:03;;;;;;;53.55;46.63;;;17.70;99.90;;;;;;5089430;28;20044;-66
2022/09/08 10:39:37;;;;;;;51.30;45.88;;;17.70;99.90;;;;;;5073051;28;20670;-66
2022/09/08 10:42:28;;;;;;;51.85;46.33;;;17.70;99.90;;;;;;5072558;28;20055;-68
2022/09/08 10:45:12;;;;;;;56.65;50.13;;;17.80;99.90;;;;;;5087212;28;20044;-67
2022/09/08 10:48:05;;;;;;;62.08;54.00;;;18.00;99.90;;;;;;5091550;28;20117;-67
2022/09/08 10:50:32;;;;;;;57.38;50.10;;;17.90;99.90;;;;;;5093104;28;20051;-69
2022/09/08 10:53:36;;;;;;;50.85;45.28;;;18.10;99.90;;;;;;5092836;28;20039;-67
2022/09/08 10:56:21;;;;;;;60.97;52.45;;;18.10;99.90;;;;;;5093338;28;20058;-68
2022/09/08 10:59:15;;;;;;;54.58;46.85;;;17.80;99.90;;;;;;5091499;28;20039;-67
2022/09/08 11:01:59;;;;;;;48.38;43.25;;;17.80;99.90;;;;;;5092035;28;20132;-67
2022/09/08 11:04:48;;;;;;;55.70;47.50;;;17.80;99.90;;;;;;5091945;28;20056;-69
2022/09/08 11:07:38;;;;;;;49.58;43.95;;;17.80;99.90;;;;;;5091482;28;20055;-69
2022/09/08 11:10:23;;;;;;;47.80;42.53;;;18.10;99.90;;;;;;5091515;28;20589;-69
2022/09/08 11:13:20;;;;;;;49.67;44.22;;;17.90;99.90;;;;;;5073843;28;20052;-66
2022/09/08 11:16:12;;;;;;;41.17;36.92;;;18.10;99.90;;;;;;5071831;28;20501;-66
2022/09/08 11:18:56;;;;;;;37.35;33.55;;;18.10;99.90;;;;;;5072376;28;20101;-66
2022/09/08 11:21:29;;;;;;;44.40;39.45;;;18.10;99.90;;;;;;5070031;28;20456;-66
2022/09/08 11:23:55;;;;;;;;;;;18.00;99.90;;;;;;5071906;28;20702;-69
2022/09/08 11:26:20;;;;;;;42.33;37.75;;;17.80;99.90;;;;;;5071943;28;19927;-68
2022/09/08 11:29:11;;;;;;;39.25;35.25;;;17.90;99.90;;;;;;5072147;28;20400;-70
2022/09/08 11:32:02;;;;;;;39.25;35.25;;;17.80;99.90;;;;;;5086563;28;20344;-71
2022/09/08 11:34:38;;;;;;;42.42;37.83;;;18.00;99.90;;;;;;5092262;28;20047;-70
2022/09/08 11:37:51;;;;;;;50.35;41.10;;;18.00;99.90;;;;;;5085374;28;20047;-68
2022/09/08 11:40:35;;;;;;;43.38;38.28;;;17.80;99.90;;;;;;5082410;28;20044;-70
2022/09/08 11:43:04;;;;;;;42.03;37.38;;;18.00;99.90;;;;;;5093692;28;20044;-66
2022/09/08 11:45:57;;;;;;;49.50;40.35;;;17.70;99.90;;;;;;5091572;28;20043;-70
2022/09/08 11:48:46;;;;;;;29.48;26.58;;;18.00;99.90;;;;;;5070636;28;20712;-67
2022/09/08 11:51:39;;;;;;;17.73;15.98;;;18.00;99.90;;;;;;5076204;28;20457;-69
2022/09/08 11:54:26;;;;;;;11.80;10.60;;;17.80;99.90;;;;;;5089948;28;20098;-69
2022/09/08 11:57:29;;;;;;;10.95;9.88;;;17.90;99.90;;;;;;5072626;28;20047;-68
2022/09/08 12:00:22;;;;;;;12.18;10.95;;;17.80;99.90;;;;;;5074675;28;20240;-69
2022/09/08 12:03:09;;;;;;;10.10;9.07;;;17.60;99.90;;;;;;5092426;28;20043;-67
2022/09/08 12:06:07;;;;;;;10.77;9.40;;;17.70;99.90;;;;;;5092483;28;20582;-67
2022/09/08 12:08:52;;;;;;;15.85;14.15;;;17.70;99.90;;;;;;5071655;28;20048;-67
2022/09/08 12:11:55;;;;;;;13.82;12.48;;;17.50;99.90;;;;;;5088225;28;20332;-67
2022/09/08 12:14:33;;;;;;;13.73;12.32;;;17.70;99.90;;;;;;5081196;28;20040;-69
2022/09/08 12:17:05;;;;;;;11.80;10.48;;;17.60;99.90;;;;;;5086446;28;20048;-67
2022/09/08 12:20:00;;;;;;;12.95;11.73;;;17.70;99.90;;;;;;5093011;28;20328;-67
2022/09/08 12:22:53;;;;;;;12.65;11.35;;;17.80;99.90;;;;;;5093036;28;20091;-67
2022/09/08 12:25:43;;;;;;;13.48;10.57;;;17.50;99.90;;;;;;5092699;28;20424;-68
2022/09/08 12:28:27;;;;;;;16.77;12.77;;;17.70;99.90;;;;;;5092503;28;20051;-67
2022/09/08 12:31:20;;;;;;;13.68;12.15;;;17.70;99.90;;;;;;5093070;28;20049;-67
2022/09/08 12:34:37;;;;;;;12.52;10.63;;;17.70;99.90;;;;;;5073304;28;20051;-66
2022/09/08 12:37:33;;;;;;;8.70;7.90;;;17.50;99.90;;;;;;5060038;28;20131;-67
2022/09/08 12:40:17;;;;;;;8.93;7.28;;;17.60;99.90;;;;;;5071528;28;20504;-66
2022/09/08 12:43:21;;;;;;;4.05;3.63;;;17.60;99.90;;;;;;5092043;28;20583;-68
2022/09/08 12:46:03;;;;;;;8.27;6.82;;;17.30;99.90;;;;;;5089420;28;20301;-68
2022/09/08 12:49:02;;;;;;;6.22;3.65;;;17.50;99.90;;;;;;5072973;28;20040;-68
2022/09/08 12:51:36;;;;;;;5.13;3.97;;;17.40;99.90;;;;;;5059525;28;20154;-70
2022/09/08 12:54:07;;;;;;;4.63;3.55;;;17.40;99.90;;;;;;5073031;28;20082;-68
2022/09/08 12:57:04;;;;;;;5.13;4.53;;;17.40;99.90;;;;;;5073670;28;20543;-71
2022/09/08 12:59:43;;;;;;;3.28;2.53;;;17.40;99.90;;;;;;5089763;28;20043;-68
2022/09/08 13:02:20;;;;;;;5.00;2.95;;;17.40;99.90;;;;;;5092895;28;20059;-70
2022/09/08 13:04:51;;;;;;;3.05;1.45;;;17.30;99.90;;;;;;5092301;28;20529;-70
2022/09/08 13:07:36;;;;;;;2.45;1.27;;;17.40;99.90;;;;;;5089879;28;20471;-68
2022/09/08 13:10:09;;;;;;;3.35;2.00;;;17.30;99.90;;;;;;5093614;28;20132;-69
2022/09/08 13:12:46;;;;;;;4.05;2.88;;;17.30;99.90;;;;;;5091930;28;20568;-68
2022/09/08 13:15:27;;;;;;;4.03;2.17;;;17.40;99.90;;;;;;5094942;28;20066;-68
2022/09/08 13:18:08;;;;;;;5.47;2.95;;;17.40;99.90;;;;;;5073887;28;20052;-68
2022/09/08 13:20:39;;;;;;;4.10;3.45;;;17.50;99.90;;;;;;5078296;28;20043;-69
2022/09/08 13:23:43;;;;;;;3.80;2.55;;;17.60;99.90;;;;;;5073279;28;20044;-67
2022/09/08 13:26:36;;;;;;;3.30;2.45;;;17.30;99.90;;;;;;5072845;28;20059;-67
2022/09/08 13:29:26;;;;;;;3.55;2.08;;;17.50;99.90;;;;;;5074581;28;20055;-70
2022/09/08 13:31:55;;;;;;;4.38;2.83;;;17.30;99.90;;;;;;5084711;28;20085;-68